Time;durP1;ratioP1;P1;durP2;ratioP2;P2;SDS_P1;SDS_P2;PMS_P1;PMS_P2;Temp;Humidity;BMP_temperature;BMP_pressure;BME280_temperature;BME280_humidity;BME280_pressure;Samples;Min_cycle;Max_cycle;Signal;HPM_P1;HPM_P2
2022/04/23 00:00:45;;;;;;;11.65;6.45;;;;;;;;;;4977524;28;20371;-68
2022/04/23 00:03:10;;;;;;;8.80;5.83;;;;;;;;;;4975402;28;20038;-68
2022/04/23 00:05:36;;;;;;;10.60;5.67;;;;;;;;;;4979923;28;20276;-68
2022/04/23 00:08:02;;;;;;;7.20;4.90;;;;;;;;;;4992982;28;20611;-69
2022/04/23 00:10:27;;;;;;;7.60;4.80;;;;;;;;;;4985197;28;20072;-68
2022/04/23 00:12:54;;;;;;;8.98;4.88;;;;;;;;;;4976370;28;20311;-68
2022/04/23 00:15:21;;;;;;;7.70;4.75;;;;;;;;;;4972284;28;20441;-69
2022/04/23 00:17:47;;;;;;;7.22;4.15;;;;;;;;;;4973988;28;20038;-69
2022/04/23 00:20:12;;;;;;;5.15;4.20;;;;;;;;;;4989622;28;20038;-68
2022/04/23 00:22:37;;;;;;;10.97;5.33;;;;;;;;;;4975494;28;20034;-69
2022/04/23 00:25:03;;;;;;;9.45;5.35;;;;;;;;;;4974037;28;21045;-70
2022/04/23 00:27:28;;;;;;;8.55;5.55;;;;;;;;;;5009597;28;20063;-69
2022/04/23 00:29:54;;;;;;;11.40;6.27;;;;;;;;;;4981823;28;20054;-69
2022/04/23 00:32:19;;;;;;;8.00;6.37;;;;;;;;;;4975867;28;20283;-68
2022/04/23 00:34:44;;;;;;;11.53;7.10;;;;;;;;;;4976999;28;20551;-68
2022/04/23 00:37:10;;;;;;;13.80;6.82;;;;;;;;;;4987398;28;20275;-69
2022/04/23 00:39:35;;;;;;;12.55;7.50;;;;;;;;;;4985476;28;20058;-68
2022/04/23 00:42:02;;;;;;;9.90;7.27;;;;;;;;;;4975533;28;20084;-69
2022/04/23 00:44:27;;;;;;;13.98;7.65;;;;;;;;;;4973408;28;20763;-68
2022/04/23 00:46:52;;;;;;;11.48;8.30;;;;;;;;;;4970666;28;20049;-67
2022/04/23 00:49:18;;;;;;;11.70;8.70;;;;;;;;;;4977082;28;20041;-68
2022/04/23 00:51:43;;;;;;;12.15;8.07;;;;;;;;;;4974814;28;20041;-67
2022/04/23 00:54:09;;;;;;;12.93;8.55;;;;;;;;;;4971800;28;20058;-69
2022/04/23 00:56:35;;;;;;;11.38;8.48;;;;;;;;;;4978515;28;20038;-69
2022/04/23 00:59:05;;;;;;;14.18;9.13;;;;;;;;;;4975516;28;20396;-69
2022/04/23 01:01:30;;;;;;;15.27;9.38;;;;;;;;;;4981068;28;20495;-69
2022/04/23 01:03:57;;;;;;;16.85;11.15;;;;;;;;;;4985983;28;20050;-68
2022/04/23 01:06:23;;;;;;;18.60;11.20;;;;;;;;;;4973181;28;20077;-67
2022/04/23 01:08:49;;;;;;;13.40;10.57;;;;;;;;;;4976959;28;20158;-68
2022/04/23 01:11:14;;;;;;;13.55;10.02;;;;;;;;;;4978614;28;20114;-68
2022/04/23 01:13:43;;;;;;;15.00;10.48;;;;;;;;;;4991643;28;20043;-68
2022/04/23 01:16:08;;;;;;;16.00;10.60;;;;;;;;;;4973437;28;20046;-69
2022/04/23 01:18:36;;;;;;;15.95;10.45;;;;;;;;;;4973916;28;20042;-68
2022/04/23 01:21:02;;;;;;;15.85;10.73;;;;;;;;;;4986318;28;20038;-68
2022/04/23 01:23:29;;;;;;;15.70;10.63;;;;;;;;;;4976935;28;20050;-68
2022/04/23 01:25:54;;;;;;;15.45;11.05;;;;;;;;;;4978695;28;20030;-68
2022/04/23 01:28:21;;;;;;;16.30;11.40;;;;;;;;;;4979233;28;20400;-69
2022/04/23 01:30:50;;;;;;;18.75;11.25;;;;;;;;;;4975375;28;20035;-69
2022/04/23 01:33:16;;;;;;;19.73;11.27;;;;;;;;;;4973736;28;20047;-69
2022/04/23 01:35:42;;;;;;;16.17;11.05;;;;;;;;;;4976637;28;20049;-67
2022/04/23 01:38:07;;;;;;;14.52;11.60;;;;;;;;;;4972754;28;20553;-69
2022/04/23 01:40:32;;;;;;;18.08;12.18;;;;;;;;;;4977909;28;20050;-70
2022/04/23 01:42:58;;;;;;;16.90;11.57;;;;;;;;;;4977188;28;20041;-69
2022/04/23 01:45:24;;;;;;;16.15;11.40;;;;;;;11.48;nan;99450.47;4977080;28;20519;-69
2022/04/23 01:47:50;;;;;;;19.83;11.30;;;;;;;;;;4976762;28;20035;-68
2022/04/23 01:50:15;;;;;;;15.93;11.33;;;;;;;;;;4980683;28;20053;-67
2022/04/23 01:52:40;;;;;;;15.67;11.13;;;;;;;;;;4977184;28;20045;-69
2022/04/23 01:55:06;;;;;;;16.70;10.57;;;;;;;;;;4976623;28;20130;-69
2022/04/23 01:57:31;;;;;;;14.15;10.68;;;;;;;;;;4982575;28;20284;-68
2022/04/23 01:59:56;;;;;;;19.02;11.70;;;;;;;;;;4989518;28;20096;-69
2022/04/23 02:02:22;;;;;;;17.60;11.50;;;;;;;;;;4985334;28;20078;-69
2022/04/23 02:04:47;;;;;;;18.30;12.52;;;;;;;;;;4983179;28;20284;-68
2022/04/23 02:07:12;;;;;;;20.42;11.93;;;;;;;;;;4979864;28;20125;-70
2022/04/23 02:09:38;;;;;;;18.87;11.60;;;;;;;;;;4975682;28;20038;-69
2022/04/23 02:12:03;;;;;;;20.60;11.40;;;;;;;;;;4991615;28;21091;-67
2022/04/23 02:14:28;;;;;;;17.23;11.70;;;;;;;;;;4984996;28;20354;-68
2022/04/23 02:16:54;;;;;;;14.13;10.97;;;;;;;;;;4985197;28;20097;-69
2022/04/23 02:19:19;;;;;;;16.50;11.10;;;;;;;;;;4976363;28;20276;-69
2022/04/23 02:21:44;;;;;;;17.17;10.90;;;;;;;;;;4985594;28;20768;-68
2022/04/23 02:24:10;;;;;;;16.48;10.98;;;;;;;;;;4996016;28;20548;-68
2022/04/23 02:26:35;;;;;;;13.85;9.50;;;;;;;;;;4975299;28;20035;-68
2022/04/23 02:29:00;;;;;;;14.15;9.68;;;;;;;;;;4977051;28;20045;-69
2022/04/23 02:31:26;;;;;;;13.40;9.50;;;;;;;;;;4985223;28;20511;-68
2022/04/23 02:33:51;;;;;;;16.63;9.97;;;;;;;;;;5000298;28;20038;-67
2022/04/23 02:36:16;;;;;;;13.10;9.97;;;;;;;;;;4977045;28;20285;-68
2022/04/23 02:38:41;;;;;;;16.13;9.70;;;;;;;;;;5005178;28;20137;-68
2022/04/23 02:41:07;;;;;;;13.93;9.57;;;;;;;;;;4985793;28;20284;-68
2022/04/23 02:43:35;;;;;;;14.15;10.93;;;;;;;;;;4983266;28;20050;-68
2022/04/23 02:46:01;;;;;;;15.73;10.38;;;;;;;;;;4982397;28;20042;-68
2022/04/23 02:48:28;;;;;;;13.00;10.18;;;;;;;;;;4976847;28;20046;-69
2022/04/23 02:50:53;;;;;;;15.98;9.82;;;;;;;;;;4979301;28;20117;-70
2022/04/23 02:53:19;;;;;;;13.20;8.57;;;;;;;;;;4982703;28;20193;-68
2022/04/23 02:55:46;;;;;;;11.02;7.85;;;;;;;;;;4979882;28;20280;-69
2022/04/23 02:58:11;;;;;;;12.43;7.97;;;;;;;;;;4973436;28;20496;-69
2022/04/23 03:00:40;;;;;;;10.18;7.68;;;;;;;;;;4980411;28;20157;-67
2022/04/23 03:03:07;;;;;;;10.00;6.97;;;;;;;;;;4982737;28;20037;-69
2022/04/23 03:05:32;;;;;;;14.07;8.52;;;;;;;;;;4979397;28;20100;-68
2022/04/23 03:07:59;;;;;;;12.15;8.40;;;;;;;;;;4983570;28;20030;-69
2022/04/23 03:10:25;;;;;;;10.18;8.45;;;;;;;;;;4977469;28;20045;-69
2022/04/23 03:12:50;;;;;;;13.73;8.50;;;;;;;;;;4993638;28;20487;-68
2022/04/23 03:15:19;;;;;;;12.03;8.77;;;;;;;;;;4979888;28;20035;-67
2022/04/23 03:17:45;;;;;;;11.93;8.82;;;;;;;;;;4981203;28;20041;-67
2022/04/23 03:20:12;;;;;;;10.32;8.43;;;;;;;10.95;nan;99515.41;4971865;28;20366;-68
2022/04/23 03:22:38;;;;;;;505.13;74.13;;;;;;;;;;4976079;28;20551;-68
2022/04/23 03:25:03;;;;;;;16.52;12.82;;;;;;;;;;4975045;28;20043;-69
2022/04/23 03:27:29;;;;;;;14.13;9.27;;;;;;;;;;4974999;28;20408;-67
2022/04/23 03:29:57;;;;;;;12.88;8.85;;;;;;;;;;4993933;28;20039;-67
2022/04/23 03:32:23;;;;;;;13.85;9.15;;;;;;;;;;4974297;28;20038;-68
2022/04/23 03:34:48;;;;;;;15.77;9.48;;;;;;;;;;4978270;28;20461;-68
2022/04/23 03:37:13;;;;;;;16.33;8.68;;;;;;;;;;4975316;28;20034;-68
2022/04/23 03:39:39;;;;;;;17.05;8.98;;;;;;;;;;4982025;28;20059;-67
2022/04/23 03:42:04;;;;;;;13.27;8.13;;;;;;;;;;4995076;28;20031;-68
2022/04/23 03:44:30;;;;;;;15.45;8.40;;;;;;;;;;4983598;28;20754;-67
2022/04/23 03:46:56;;;;;;;13.85;8.40;;;;;;;;;;4995388;28;20369;-67
2022/04/23 03:49:23;;;;;;;14.60;8.48;;;;;;;;;;4993584;28;20109;-68
2022/04/23 03:51:48;;;;;;;15.82;8.60;;;;;;;;;;4990098;28;20042;-69
2022/04/23 03:54:14;;;;;;;14.98;8.75;;;;;;;;;;4979970;28;20512;-69
2022/04/23 03:56:40;;;;;;;15.70;9.48;;;;;;;;;;5013239;28;20045;-68
2022/04/23 03:59:07;;;;;;;13.50;8.65;;;;;;;;;;4987402;28;20031;-68
2022/04/23 04:01:32;;;;;;;14.25;8.80;;;;;;;;;;4985346;28;20038;-68
2022/04/23 04:03:58;;;;;;;15.35;9.35;;;;;;;;;;4993670;28;20077;-67
2022/04/23 04:06:23;;;;;;;114.47;14.63;;;;;;;;;;4986185;28;20069;-69
2022/04/23 04:08:50;;;;;;;19.63;9.40;;;;;;;;;;4982801;28;20821;-68
2022/04/23 04:11:15;;;;;;;16.70;9.70;;;;;;;;;;4991733;28;20066;-69
2022/04/23 04:13:41;;;;;;;15.70;9.98;;;;;;;;;;5012358;28;20046;-68
2022/04/23 04:16:06;;;;;;;16.42;9.85;;;;;;;;;;4978867;28;20042;-67
2022/04/23 04:18:35;;;;;;;15.48;9.85;;;;;;;;;;4972883;28;20129;-67
2022/04/23 04:21:00;;;;;;;15.27;9.40;;;;;;;;;;4974143;28;20093;-69
2022/04/23 04:23:26;;;;;;;19.17;9.52;;;;;;;;;;4999089;28;20039;-69
2022/04/23 04:25:52;;;;;;;17.95;11.68;;;;;;;;;;4975559;28;20030;-69
2022/04/23 04:28:17;;;;;;;18.92;10.70;;;;;;;;;;4977884;28;20062;-68
2022/04/23 04:33:26;;;;;;;15.52;9.60;;;;;;;;;;4972944;28;20397;-69
2022/04/23 04:35:52;;;;;;;18.67;10.65;;;;;;;;;;4974100;28;20045;-69
2022/04/23 04:38:17;;;;;;;17.23;11.43;;;;;;;;;;4979731;28;20042;-66
2022/04/23 04:40:46;;;;;;;19.60;10.90;;;;;;;;;;4979373;28;20046;-68
2022/04/23 04:43:14;;;;;;;16.70;9.90;;;;;;;;;;4972698;28;20050;-69
2022/04/23 04:45:39;;;;;;;18.27;9.55;;;;;;;;;;4978777;28;20511;-69
2022/04/23 04:48:05;;;;;;;16.60;9.75;;;;;;;;;;4972348;28;20047;-69
2022/04/23 04:50:31;;;;;;;17.25;9.63;;;;;;;;;;4998959;28;20109;-68
2022/04/23 04:52:57;;;;;;;19.77;9.70;;;;;;;;;;4978091;28;20046;-68
2022/04/23 04:55:22;;;;;;;22.17;10.35;;;;;;;;;;4979362;28;20400;-69
2022/04/23 04:57:49;;;;;;;14.20;8.73;;;;;;;;;;4972564;28;20059;-70
2022/04/23 05:00:15;;;;;;;18.13;8.63;;;;;;;;;;4974670;28;20384;-70
2022/04/23 05:02:40;;;;;;;18.85;9.38;;;;;;;;;;4979204;28;20102;-69
2022/04/23 05:05:06;;;;;;;19.03;9.80;;;;;;;;;;4974343;28;20046;-68
2022/04/23 05:07:32;;;;;;;16.75;8.63;;;;;;;;;;4973537;28;20280;-70
2022/04/23 05:09:57;;;;;;;19.33;9.57;;;;;;;;;;4973802;28;20041;-69
2022/04/23 05:12:22;;;;;;;23.53;9.90;;;;;;;;;;4988749;28;20041;-67
2022/04/23 05:14:47;;;;;;;19.37;9.70;;;;;;;;;;4975421;28;20049;-70
2022/04/23 05:17:13;;;;;;;16.33;8.73;;;;;;;;;;4972466;28;20292;-69
2022/04/23 05:19:38;;;;;;;17.02;9.02;;;;;;;;;;4972411;28;20117;-68
2022/04/23 05:22:03;;;;;;;15.03;8.77;;;;;;;;;;4979931;28;20038;-69
2022/04/23 05:24:29;;;;;;;14.00;8.85;;;;;;;;;;4977095;28;20034;-70
2022/04/23 05:26:54;;;;;;;18.90;8.77;;;;;;;;;;4980932;28;20039;-69
2022/04/23 05:29:19;;;;;;;17.30;10.07;;;;;;;;;;4983717;28;20355;-69
2022/04/23 05:31:44;;;;;;;23.43;11.40;;;;;;;;;;4981838;28;20261;-69
2022/04/23 05:34:10;;;;;;;15.53;9.63;;;;;;;;;;4998350;28;20338;-67
2022/04/23 05:36:35;;;;;;;15.60;8.80;;;;;;;;;;4977139;28;20109;-69
2022/04/23 05:39:00;;;;;;;12.73;7.57;;;;;;;;;;5005275;28;20046;-69
2022/04/23 05:41:25;;;;;;;14.97;7.70;;;;;;;;;;4993479;28;20136;-68
2022/04/23 05:43:50;;;;;;;13.00;7.50;;;;;;;;;;4977782;28;20683;-68
2022/04/23 05:46:17;;;;;;;18.38;8.25;;;;;;;;;;5014756;28;20379;-70
2022/04/23 05:48:43;;;;;;;14.80;7.75;;;;;;;;;;4980866;28;20039;-70
2022/04/23 05:51:08;;;;;;;16.45;7.90;;;;;;;;;;4985184;28;20532;-70
2022/04/23 05:53:33;;;;;;;15.05;7.40;;;;;;;;;;4980509;28;20042;-70
2022/04/23 05:55:59;;;;;;;15.70;7.57;;;;;;;;;;4975387;28;20539;-70
2022/04/23 05:58:24;;;;;;;11.10;6.68;;;;;;;;;;4994765;28;20363;-69
2022/04/23 06:00:51;;;;;;;10.20;6.50;;;;;;;;;;4981489;28;21650;-68
2022/04/23 06:03:16;;;;;;;11.52;6.95;;;;;;;;;;4976676;28;20476;-69
2022/04/23 06:05:41;;;;;;;12.98;7.03;;;;;;;;;;4994524;28;20087;-69
2022/04/23 06:08:06;;;;;;;11.77;6.67;;;;;;;;;;4978030;28;20039;-68
2022/04/23 06:10:32;;;;;;;15.68;7.30;;;;;;;;;;4974066;28;20034;-69
2022/04/23 06:12:57;;;;;;;11.13;6.75;;;;;;;;;;4979862;28;20491;-69
2022/04/23 06:15:22;;;;;;;12.40;7.10;;;;;;;;;;4976225;28;20389;-69
2022/04/23 06:17:48;;;;;;;14.63;7.37;;;;;;;;;;4978366;28;20319;-70
2022/04/23 06:20:13;;;;;;;12.23;6.77;;;;;;;;;;4978753;28;20038;-69
2022/04/23 06:22:38;;;;;;;10.77;6.03;;;;;;;;;;4997651;28;20878;-72
2022/04/23 06:25:05;;;;;;;13.80;6.80;;;;;;;;;;4986205;28;20442;-69
2022/04/23 06:27:31;;;;;;;12.73;6.18;;;;;;;;;;4979886;28;20153;-72
2022/04/23 06:29:56;;;;;;;10.73;6.00;;;;;;;;;;4981308;28;20129;-71
2022/04/23 06:32:22;;;;;;;13.63;6.40;;;;;;;;;;4975222;28;20042;-73
2022/04/23 06:34:47;;;;;;;10.25;5.65;;;;;;;;;;4973339;28;20299;-72
2022/04/23 06:37:12;;;;;;;10.00;5.13;;;;;;;;;;4978584;28;20026;-69
2022/04/23 06:39:38;;;;;;;11.13;5.40;;;;;;;;;;5003174;28;20294;-71
2022/04/23 06:42:03;;;;;;;8.30;4.65;;;;;;;;;;4972868;28;20698;-71
2022/04/23 06:44:28;;;;;;;10.32;4.82;;;;;;;;;;4975072;28;20046;-70
2022/04/23 06:46:54;;;;;;;12.98;5.70;;;;;;;12.20;nan;99662.03;4986991;28;20047;-70
2022/04/23 06:49:19;;;;;;;8.95;5.70;;;;;;;;;;4977183;28;20042;-70
2022/04/23 06:51:44;;;;;;;9.30;4.60;;;;;;;;;;4978224;28;20495;-71
2022/04/23 06:54:10;;;;;;;9.57;5.50;;;;;;;;;;4973807;28;20276;-72
2022/04/23 06:56:37;;;;;;;11.95;5.93;;;;;;;;;;4974873;28;20042;-71
2022/04/23 06:59:02;;;;;;;12.10;5.82;;;;;;;;;;4970146;28;20041;-69
2022/04/23 07:01:28;;;;;;;11.77;5.70;;;;;;;;;;5003112;28;20701;-71
2022/04/23 07:03:53;;;;;;;10.38;5.75;;;;;;;;;;5002747;28;20050;-69
2022/04/23 07:06:18;;;;;;;15.67;6.70;;;;;;;;;;4987594;28;20066;-70
2022/04/23 07:08:44;;;;;;;10.30;5.25;;;;;;;;;;4973882;28;20049;-74
2022/04/23 07:11:10;;;;;;;11.68;5.55;;;;;;;;;;4973667;28;20035;-73
2022/04/23 07:13:35;;;;;;;10.20;5.43;;;;;;;;;;4973610;28;20057;-73
2022/04/23 07:16:01;;;;;;;12.13;5.30;;;;;;;;;;4972561;28;20038;-73
2022/04/23 07:18:26;;;;;;;9.82;5.30;;;;;;;;;;5004290;28;20093;-74
2022/04/23 07:20:52;;;;;;;10.82;4.93;;;;;;;;;;4998679;28;20046;-74
2022/04/23 07:26:01;;;;;;;9.07;5.55;;;;;;;;;;4962163;28;20047;-74
2022/04/23 07:28:26;;;;;;;9.27;6.07;;;;;;;;;;4971648;28;20038;-74
2022/04/23 07:30:52;;;;;;;12.27;6.50;;;;;;;;;;4971192;28;20097;-73
2022/04/23 07:38:44;;;;;;;9.65;6.00;;;;;;;;;;4972309;28;20055;-74
2022/04/23 07:41:11;;;;;;;8.97;5.47;;;;;;;;;;4987358;28;20042;-75
2022/04/23 07:43:36;;;;;;;8.15;5.80;;;;;;;;;;4967371;28;20284;-74
2022/04/23 07:46:02;;;;;;;10.10;6.23;;;;;;;;;;4970959;28;20047;-74
2022/04/23 07:48:27;;;;;;;10.30;6.47;;;;;;;;;;5003179;28;20308;-72
2022/04/23 07:50:53;;;;;;;10.03;6.27;;;;;;;;;;4973002;28;20269;-72
2022/04/23 07:53:18;;;;;;;11.93;6.03;;;;;;;;;;4976115;28;20280;-73
2022/04/23 07:55:43;;;;;;;10.87;6.97;;;;;;;;;;4978298;28;20069;-72
2022/04/23 07:58:11;;;;;;;12.60;6.97;;;;;;;13.06;nan;99642.41;4978408;28;20308;-72
2022/04/23 08:00:38;;;;;;;12.95;7.40;;;;;;;;;;4973739;28;20296;-72
2022/04/23 08:03:04;;;;;;;10.02;6.78;;;;;;;;;;4973705;28;20121;-73
2022/04/23 08:05:29;;;;;;;11.27;7.53;;;;;;;;;;5004042;28;20074;-72
2022/04/23 08:07:55;;;;;;;18.20;8.43;;;;;;;;;;4984816;28;20451;-72
2022/04/23 08:10:20;;;;;;;15.25;8.30;;;;;;;;;;4980586;28;20049;-72
2022/04/23 08:12:46;;;;;;;14.88;9.05;;;;;;;;;;4982812;28;20130;-72
2022/04/23 08:15:12;;;;;;;15.48;9.80;;;;;;;;;;4983938;28;20046;-73
2022/04/23 08:17:37;;;;;;;16.73;10.10;;;;;;;;;;4999274;28;20039;-73
2022/04/23 08:20:03;;;;;;;14.43;9.73;;;;;;;;;;4984818;28;20109;-72
2022/04/23 08:22:28;;;;;;;14.93;10.07;;;;;;;;;;4983880;28;20039;-73
2022/04/23 08:24:54;;;;;;;14.87;9.10;;;;;;;;;;4985520;28;20053;-73
2022/04/23 08:27:19;;;;;;;14.73;9.40;;;;;;;;;;4975129;28;20277;-72
2022/04/23 08:32:28;;;;;;;16.60;10.82;;;;;;;;;;4974611;28;20030;-74
2022/04/23 08:34:53;;;;;;;17.92;10.27;;;;;;;;;;4973135;28;20038;-72
2022/04/23 08:37:19;;;;;;;21.97;11.50;;;;;;;13.53;nan;99725.34;4971577;28;20035;-73
2022/04/23 08:39:47;;;;;;;19.40;10.68;;;;;;;;;;4969328;28;20074;-72
2022/04/23 08:42:15;;;;;;;19.92;11.45;;;;;;;;;;4965691;28;20043;-72
2022/04/23 08:44:41;;;;;;;24.42;11.00;;;;;;;;;;4971839;28;20043;-73
2022/04/23 08:47:13;;;;;;;16.48;9.75;;;;;;;;;;4974072;28;20034;-75
2022/04/23 08:49:42;;;;;;;18.77;11.02;;;;;;;;;;5000821;28;20046;-73
2022/04/23 08:52:07;;;;;;;;;;;;;;;;;;4969936;28;20041;-71
2022/04/23 08:54:33;;;;;;;16.60;9.57;;;;;;;;;;4999107;28;19914;-73
2022/04/23 08:56:58;;;;;;;20.55;10.50;;;;;;;;;;5001706;28;20046;-73
2022/04/23 08:59:24;;;;;;;21.63;10.03;;;;;;;;;;4986128;28;20026;-73
2022/04/23 09:01:49;;;;;;;20.63;11.63;;;;;;;;;;4980934;28;20347;-73
2022/04/23 09:04:14;;;;;;;18.08;10.82;;;;;;;;;;4984494;28;20070;-73
2022/04/23 09:06:46;;;;;;;15.33;9.60;;;;;;;;;;4970149;28;20038;-73
2022/04/23 09:09:16;;;;;;;17.30;10.02;;;;;;;;;;4970543;28;20280;-74
2022/04/23 09:11:42;;;;;;;16.92;10.20;;;;;;;;;;4981734;28;20057;-73
2022/04/23 09:14:08;;;;;;;18.80;10.70;;;;;;;;;;4971378;28;20035;-72
2022/04/23 09:25:01;;;;;;;16.83;9.93;;;;;;;;;;4970657;28;20161;-72
2022/04/23 09:27:28;;;;;;;14.88;9.20;;;;;;;;;;4967642;28;20118;-71
2022/04/23 09:29:56;;;;;;;16.70;10.27;;;;;;;;;;4969767;28;20068;-71
2022/04/23 09:32:21;;;;;;;20.38;10.50;;;;;;;;;;4971230;28;20066;-73
2022/04/23 09:34:47;;;;;;;19.40;10.80;;;;;;;;;;4970989;28;20449;-72
2022/04/23 09:37:12;;;;;;;18.88;11.70;;;;;;;;;;4968529;28;20875;-73
2022/04/23 09:39:40;;;;;;;18.83;11.67;;;;;;;;;;4968085;28;20393;-72
2022/04/23 09:42:12;;;;;;;19.05;11.07;;;;;;;;;;4977355;28;20123;-72
2022/04/23 09:44:38;;;;;;;20.58;12.15;;;;;;;;;;4965185;28;20443;-72
2022/04/23 09:47:03;;;;;;;23.65;13.38;;;;;;;;;;4962760;28;20161;-72
2022/04/23 09:49:28;;;;;;;20.05;12.73;;;;;;;;;;4978841;28;20039;-70
2022/04/23 09:52:04;;;;;;;20.93;14.20;;;;;;;;;;4966698;28;20042;-72
2022/04/23 09:54:32;;;;;;;25.63;15.57;;;;;;;;;;4958924;28;20043;-71
2022/04/23 09:56:59;;;;;;;26.67;15.80;;;;;;;;;;4964796;28;20039;-70
2022/04/23 09:59:24;;;;;;;25.58;15.25;;;;;;;;;;4976888;28;20412;-70
2022/04/23 10:01:50;;;;;;;23.45;14.95;;;;;;;;;;4965254;28;20043;-70
2022/04/23 10:04:22;;;;;;;23.98;14.98;;;;;;;;;;4995176;28;20118;-70
2022/04/23 10:06:49;;;;;;;22.73;13.48;;;;;;;;;;4965800;28;20600;-70
2022/04/23 10:09:20;;;;;;;22.23;13.20;;;;;;;;;;5001808;28;20073;-70
2022/04/23 10:11:48;;;;;;;21.95;12.85;;;;;;;;;;4971492;28;20045;-69
2022/04/23 10:14:16;;;;;;;21.07;12.27;;;;;;;;;;4967826;28;20106;-67
2022/04/23 10:16:42;;;;;;;17.63;11.80;;;;;;;;;;4967492;28;20268;-70
2022/04/23 10:19:08;;;;;;;19.80;12.05;;;;;;;;;;4972054;28;20039;-72
2022/04/23 10:21:42;;;;;;;20.70;11.00;;;;;;;;;;4969157;28;20086;-68
2022/04/23 10:24:10;;;;;;;17.73;11.35;;;;;;;;;;4965579;28;20042;-72
2022/04/23 10:26:39;;;;;;;16.42;9.73;;;;;;;;;;4968451;28;20066;-71
2022/04/23 10:29:14;;;;;;;14.75;10.07;;;;;;;;;;4973586;28;20045;-72
2022/04/23 10:31:41;;;;;;;19.88;10.68;;;;;;;;;;4976813;28;20373;-69
2022/04/23 10:34:26;;;;;;;20.55;12.23;;;;;;;;;;4977255;28;20445;-71
2022/04/23 10:37:10;;;;;;;16.85;11.18;;;;;;;;;;4979301;28;20074;-71
2022/04/23 10:39:35;;;;;;;18.02;11.25;;;;;;;;;;4957277;28;20051;-73
2022/04/23 10:42:02;;;;;;;22.67;11.90;;;;;;;;;;4978657;28;20041;-70
2022/04/23 10:44:29;;;;;;;19.25;11.85;;;;;;;;;;4961649;28;20039;-71
2022/04/23 10:46:58;;;;;;;16.48;11.10;;;;;;;;;;4977453;28;20527;-70
2022/04/23 10:49:24;;;;;;;18.47;11.63;;;;;;;;;;4967749;28;20047;-72
2022/04/23 10:51:49;;;;;;;14.65;10.30;;;;;;;;;;4976603;28;20041;-74
2022/04/23 10:54:16;;;;;;;17.42;11.32;;;;;;;;;;4994137;28;20083;-73
2022/04/23 10:56:43;;;;;;;16.17;11.57;;;;;;;;;;4977124;28;20098;-72
2022/04/23 10:59:31;;;;;;;16.25;11.20;;;;;;;;;;4976327;28;20041;-73
2022/04/23 11:02:02;;;;;;;16.73;11.48;;;;;;;;;;4976327;28;20035;-73
2022/04/23 11:04:27;;;;;;;19.13;10.90;;;;;;;;;;4992418;28;20042;-73
2022/04/23 11:12:36;;;;;;;17.65;10.82;;;;;;;15.34;nan;99741.59;4977857;28;20030;-72
2022/04/23 11:15:02;;;;;;;17.52;10.98;;;;;;;;;;4975228;28;20374;-73
2022/04/23 11:17:36;;;;;;;19.00;11.85;;;;;;;;;;4969769;28;20045;-73
2022/04/23 11:20:02;;;;;;;18.58;12.25;;;;;;;;;;4990814;28;20039;-72
2022/04/23 11:22:28;;;;;;;17.67;11.52;;;;;;;;;;4975373;28;20034;-71
2022/04/23 11:24:53;;;;;;;17.35;11.15;;;;;;;;;;4990831;28;20038;-72
2022/04/23 11:27:28;;;;;;;18.20;11.32;;;;;;;;;;5001904;28;20057;-73
2022/04/23 11:29:54;;;;;;;18.65;13.25;;;;;;;;;;4990708;28;20051;-73
2022/04/23 11:32:26;;;;;;;18.33;11.80;;;;;;;;;;5003127;28;20086;-73
2022/04/23 11:35:00;;;;;;;18.67;11.93;;;;;;;;;;4974472;28;20066;-72
2022/04/23 11:37:29;;;;;;;18.77;12.13;;;;;;;;;;4974599;28;20462;-74
2022/04/23 11:39:54;;;;;;;;;;;;;;;;;;4975151;28;20092;-71
2022/04/23 11:42:34;;;;;;;18.47;13.00;;;;;;;;;;4973743;28;19949;-70
2022/04/23 11:44:59;;;;;;;21.30;13.02;;;;;;;;;;4972652;28;20048;-72
2022/04/23 11:47:28;;;;;;;19.60;12.83;;;;;;;;;;4971567;28;20034;-71
2022/04/23 11:49:53;;;;;;;18.30;12.68;;;;;;;;;;4971783;28;20276;-71
2022/04/23 11:52:19;;;;;;;20.48;14.07;;;;;;;;;;4971254;28;20053;-71
2022/04/23 11:54:45;;;;;;;20.63;13.25;;;;;;;;;;4971717;28;20089;-71
2022/04/23 11:57:18;;;;;;;21.67;13.55;;;;;;;15.65;nan;99805.16;4971653;28;20042;-73
2022/04/23 11:59:45;;;;;;;19.75;13.95;;;;;;;;;;4976523;28;20138;-71
2022/04/23 12:02:21;;;;;;;20.15;13.10;;;;;;;;;;4985944;28;20065;-71
2022/04/23 12:04:48;;;;;;;18.30;13.10;;;;;;;;;;4966190;28;20046;-72
2022/04/23 12:07:13;;;;;;;15.48;11.70;;;;;;;;;;4972092;28;20046;-71
2022/04/23 12:09:55;;;;;;;15.68;10.55;;;;;;;;;;4971672;28;20046;-70
2022/04/23 12:12:20;;;;;;;17.48;11.18;;;;;;;;;;4960336;28;20062;-71
2022/04/23 12:14:46;;;;;;;15.23;11.70;;;;;;;;;;4968006;28;20066;-71
2022/04/23 12:17:19;;;;;;;16.38;11.07;;;;;;;;;;4967356;28;20046;-70
2022/04/23 12:19:45;;;;;;;17.52;11.98;;;;;;;;;;4972422;28;20035;-72
2022/04/23 12:22:20;;;;;;;25.55;17.00;;;;;;;;;;4971916;28;20042;-70
2022/04/23 12:24:46;;;;;;;20.15;14.15;;;;;;;;;;4986735;28;20043;-70
2022/04/23 12:27:12;;;;;;;20.33;12.75;;;;;;;;;;4986741;28;20509;-71
2022/04/23 12:40:44;;;;;;;17.15;11.23;;;;;;;;;;4972321;28;21477;-74
2022/04/23 12:43:20;;;;;;;16.48;11.88;;;;;;;;;;4981872;28;20047;-72
2022/04/23 12:45:45;;;;;;;15.75;11.65;;;;;;;;;;4997845;28;20041;-71
2022/04/23 12:48:12;;;;;;;16.70;12.73;;;;;;;;;;4987071;28;20034;-72
2022/04/23 12:50:37;;;;;;;17.15;11.73;;;;;;;;;;4985066;28;20102;-71
2022/04/23 12:53:03;;;;;;;15.98;11.40;;;;;;;;;;4992087;28;20042;-72
2022/04/23 12:55:30;;;;;;;14.47;11.30;;;;;;;;;;4989324;28;20034;-72
2022/04/23 12:58:04;;;;;;;15.70;11.68;;;;;;;;;;4984210;28;20272;-71
2022/04/23 13:00:31;;;;;;;14.88;11.32;;;;;;;;;;4983146;28;20050;-71
2022/04/23 13:02:58;;;;;;;16.75;11.07;;;;;;;;;;4983823;28;20081;-71
2022/04/23 13:05:24;;;;;;;14.63;11.48;;;;;;;;;;4975954;28;20382;-73
2022/04/23 13:10:33;;;;;;;15.40;11.30;;;;;;;;;;4970165;28;20075;-72
2022/04/23 13:12:59;;;;;;;13.68;10.55;;;;;;;;;;4970514;28;20059;-73
2022/04/23 13:15:25;;;;;;;14.55;10.00;;;;;;;;;;4970795;28;20034;-72
2022/04/23 13:17:51;;;;;;;15.60;10.45;;;;;;;;;;4970209;28;20035;-71
2022/04/23 13:20:16;;;;;;;12.77;9.85;;;;;;;;;;4969136;28;20790;-72
2022/04/23 13:22:43;;;;;;;12.90;9.85;;;;;;;;;;4971298;28;20050;-73
2022/04/23 13:25:09;;;;;;;12.90;9.50;;;;;;;;;;5002034;28;20052;-71
2022/04/23 13:27:34;;;;;;;15.43;10.07;;;;;;;;;;5001472;28;20035;-72
2022/04/23 13:30:00;;;;;;;14.53;11.37;;;;;;;;;;4971169;28;20034;-73
2022/04/23 13:32:25;;;;;;;13.13;10.40;;;;;;;;;;4970514;28;20770;-71
2022/04/23 13:34:51;;;;;;;12.50;9.73;;;;;;;;;;4970734;28;20039;-72
2022/04/23 13:37:17;;;;;;;11.60;9.48;;;;;;;;;;4968784;28;20038;-72
2022/04/23 13:39:42;;;;;;;11.82;8.73;;;;;;;16.51;nan;99833.06;4971785;28;20055;-74
2022/04/23 13:42:56;;;;;;;12.63;10.00;;;;;;;;;;5109827;27;218342;-71
2022/04/23 13:45:21;;;;;;;14.52;11.13;;;;;;;;;;5109332;27;20114;-73
2022/04/23 13:47:50;;;;;;;15.23;10.40;;;;;;;;;;5105004;28;20044;-71
2022/04/23 13:50:16;;;;;;;11.55;9.60;;;;;;;16.33;nan;99719.50;5100802;28;20031;-73
2022/04/23 13:52:42;;;;;;;17.10;11.52;;;;;;;;;;5098929;28;20051;-72
2022/04/23 13:55:09;;;;;;;14.68;11.18;;;;;;;;;;5104474;28;20031;-72
2022/04/23 13:57:34;;;;;;;17.35;11.98;;;;;;;;;;5119021;28;20122;-72
2022/04/23 14:00:00;;;;;;;15.73;11.67;;;;;;;;;;5116120;28;21729;-71
2022/04/23 14:10:36;;;;;;;18.42;13.27;;;;;;;;;;5100059;28;20032;-70
2022/04/23 14:13:01;;;;;;;14.73;11.77;;;;;;;16.22;nan;99763.94;5096893;28;20032;-71
2022/04/23 14:15:27;;;;;;;14.23;11.13;;;;;;;;;;5098860;28;20074;-72
2022/04/23 14:17:52;;;;;;;16.75;11.75;;;;;;;;;;5106608;28;20040;-72
2022/04/23 14:20:17;;;;;;;16.07;10.80;;;;;;;;;;5099869;28;20036;-72
2022/04/23 14:22:43;;;;;;;14.77;10.32;;;;;;;;;;5114293;28;20294;-73
2022/04/23 14:25:08;;;;;;;15.50;11.60;;;;;;;;;;5097060;28;20070;-72
2022/04/23 14:27:34;;;;;;;17.27;11.70;;;;;;;;;;5098105;28;21344;-71
2022/04/23 14:29:59;;;;;;;15.38;12.23;;;;;;;;;;5111312;28;20100;-71
2022/04/23 14:32:25;;;;;;;16.27;10.63;;;;;;;;;;5107816;28;20822;-70
2022/04/23 14:34:52;;;;;;;15.05;10.27;;;;;;;;;;5129292;27;20271;-68
2022/04/23 14:37:17;;;;;;;13.38;10.07;;;;;;;;;;5128261;27;20041;-72
2022/04/23 14:39:42;;;;;;;15.27;11.07;;;;;;;;;;5097145;28;20036;-69
2022/04/23 14:42:08;;;;;;;17.80;11.97;;;;;;;;;;5096708;28;20055;-72
2022/04/23 14:44:34;;;;;;;14.57;10.82;;;;;;;;;;5140556;27;20275;-69
2022/04/23 14:47:00;;;;;;;15.20;10.77;;;;;;;;;;5122155;27;20112;-68
2022/04/23 14:49:26;;;;;;;14.45;9.65;;;;;;;;;;5124113;28;20460;-68
2022/04/23 14:54:36;;;;;;;15.15;11.77;;;;;;;;;;5103462;28;20042;-73
2022/04/23 14:57:02;;;;;;;14.38;10.65;;;;;;;;;;5089019;28;20049;-72
2022/04/23 14:59:28;;;;;;;12.95;9.32;;;;;;;;;;5103197;28;20047;-72
2022/04/23 15:01:53;;;;;;;11.95;9.15;;;;;;;;;;5088677;28;20032;-73
2022/04/23 15:04:19;;;;;;;14.90;10.60;;;;;;;;;;5110739;27;20070;-73
2022/04/23 15:06:47;;;;;;;12.80;8.77;;;;;;;;;;5115253;27;20119;-73